Time;durP1;ratioP1;P1;durP2;ratioP2;P2;SDS_P1;SDS_P2;PMS_P1;PMS_P2;Temp;Humidity;BMP_temperature;BMP_pressure;BME280_temperature;BME280_humidity;BME280_pressure;Samples;Min_cycle;Max_cycle;Signal;HPM_P1;HPM_P2
2023/01/27 00:00:11;;;;;;;0.10;0.10;;;;;;;7.58;68.58;102679.13;5071642;28;20040;-79
2023/01/27 00:02:39;;;;;;;0.10;0.10;;;;;;;7.59;68.47;102678.28;5075440;28;20538;-80
2023/01/27 00:05:05;;;;;;;0.10;0.10;;;;;;;7.61;69.13;102674.81;5077160;28;20127;-80
2023/01/27 00:07:32;;;;;;;0.10;0.10;;;;;;;7.62;68.56;102675.69;5078904;28;20020;-80
2023/01/27 00:09:58;;;;;;;0.10;0.10;;;;;;;7.65;68.72;102667.84;5075245;28;20032;-79
2023/01/27 00:15:14;;;;;;;0.10;0.10;;;;;;;7.69;68.71;102668.78;5075202;28;20113;-78
2023/01/27 00:17:40;;;;;;;0.10;0.10;;;;;;;7.66;68.54;102671.38;5076911;28;20028;-80
2023/01/27 00:20:07;;;;;;;0.10;0.10;;;;;;;7.65;68.15;102665.22;5075790;28;20116;-79
2023/01/27 00:25:20;;;;;;;0.10;0.10;;;;;;;7.64;68.49;102671.34;5069389;28;20537;-80
2023/01/27 00:27:46;;;;;;;0.10;0.10;;;;;;;7.64;68.46;102668.72;5077418;28;20032;-80
2023/01/27 00:30:13;;;;;;;0.10;0.10;;;;;;;7.66;68.51;102674.88;5061219;28;20053;-79
2023/01/27 00:35:25;;;;;;;0.10;0.10;;;;;;;7.60;68.23;102670.38;5074737;28;20042;-78
2023/01/27 00:37:52;;;;;;;0.10;0.10;;;;;;;7.59;68.04;102670.38;5074754;28;20029;-78
2023/01/27 00:40:18;;;;;;;0.13;0.13;;;;;;;7.58;67.97;102673.84;5076651;28;20067;-79
2023/01/27 00:42:44;;;;;;;0.10;0.10;;;;;;;7.56;68.04;102667.63;5078333;28;20082;-79
2023/01/27 00:47:57;;;;;;;0.15;0.15;;;;;;;7.56;67.97;102670.28;5061926;28;20051;-79
2023/01/27 00:50:24;;;;;;;0.10;0.10;;;;;;;7.55;67.94;102663.22;5065457;28;20673;-79
2023/01/27 00:52:51;;;;;;;1.05;1.05;;;;;;;7.52;67.29;102664.03;5078471;28;20498;-81
2023/01/27 00:55:18;;;;;;;0.10;0.10;;;;;;;7.51;67.43;102667.53;5077942;28;20028;-80
2023/01/27 00:57:44;;;;;;;0.10;0.10;;;;;;;7.49;67.28;102668.34;5077166;28;20112;-80
2023/01/27 01:00:11;;;;;;;0.10;0.10;;;;;;;7.49;67.50;102666.63;5077208;28;20025;-79
2023/01/27 01:02:37;;;;;;;0.10;0.10;;;;;;;7.48;67.76;102677.13;5076600;28;20106;-80
2023/01/27 01:05:03;;;;;;;0.10;0.10;;;;;;;7.47;67.04;102675.38;5068339;28;20108;-80
2023/01/27 01:07:29;;;;;;;0.10;0.10;;;;;;;7.47;67.74;102664.81;5087013;28;20023;-74
2023/01/27 01:09:55;;;;;;;0.10;0.10;;;;;;;7.50;67.93;102675.41;5095977;28;20017;-75
2023/01/27 01:12:21;;;;;;;0.10;0.10;;;;;;;7.43;67.05;102675.28;5086271;28;20041;-79
2023/01/27 01:14:47;;;;;;;0.10;0.10;;;;;;;7.48;67.22;102679.75;5076080;28;20032;-79
2023/01/27 01:17:14;;;;;;;0.10;0.10;;;;;;;7.40;67.77;102682.22;5067686;28;20128;-80
2023/01/27 01:19:40;;;;;;;0.13;0.13;;;;;;;7.42;67.12;102681.41;5071679;28;20025;-79
2023/01/27 01:22:06;;;;;;;0.10;0.10;;;;;;;7.35;66.81;102674.25;5072145;28;20082;-80
2023/01/27 01:24:32;;;;;;;0.10;0.10;;;;;;;7.39;67.49;102668.16;5077270;28;20311;-79
2023/01/27 01:26:59;;;;;;;0.10;0.10;;;;;;;7.37;67.18;102680.41;5075478;28;20437;-79
2023/01/27 01:29:25;;;;;;;0.17;0.17;;;;;;;7.33;66.53;102678.56;5074979;28;20115;-79
2023/01/27 01:31:51;;;;;;;6.65;1.50;;;;;;;7.35;66.59;102676.88;5074608;28;20116;-80
2023/01/27 01:34:17;;;;;;;0.15;0.15;;;;;;;7.27;66.72;102668.75;5073460;28;20043;-77
2023/01/27 01:36:43;;;;;;;0.30;0.30;;;;;;;7.33;66.22;102680.28;5074680;28;20032;-79
2023/01/27 01:39:10;;;;;;;0.20;0.20;;;;;;;7.34;66.96;102680.34;5073249;28;20028;-80
2023/01/27 01:41:36;;;;;;;0.10;0.10;;;;;;;7.31;66.45;102696.09;5074095;28;20025;-79
2023/01/27 01:44:20;;;;;;;0.10;0.10;;;;;;;7.36;66.40;102689.19;5077760;28;20025;-80
2023/01/27 01:46:46;;;;;;;4.05;3.30;;;;;;;7.29;66.08;102692.56;5075716;28;20395;-80
2023/01/27 01:49:13;;;;;;;0.10;0.10;;;;;;;7.31;66.64;102698.72;5067998;28;20507;-80
2023/01/27 01:51:44;;;;;;;0.10;0.10;;;;;;;7.32;66.86;102692.59;5071160;28;20035;-80
2023/01/27 01:54:20;;;;;;;0.10;0.10;;;;;;;7.32;66.55;102700.53;5068574;28;20399;-80
2023/01/27 01:56:59;;;;;;;0.10;0.10;;;;;;;7.26;66.89;102689.81;5063914;28;20025;-80
2023/01/27 01:59:31;;;;;;;0.10;0.10;;;;;;;7.29;66.31;102700.47;5076243;28;20024;-79
2023/01/27 02:02:02;;;;;;;0.20;0.20;;;;;;;7.28;66.41;102693.41;5076572;28;20025;-79
2023/01/27 02:04:36;;;;;;;0.17;0.17;;;;;;;7.29;66.83;102700.47;5074558;28;20035;-77
2023/01/27 02:07:10;;;;;;;0.10;0.10;;;;;;;7.29;66.61;102692.56;5076467;28;20017;-79
2023/01/27 02:09:38;;;;;;;0.20;0.20;;;;;;;7.28;66.88;102696.03;5075162;28;20036;-79
2023/01/27 02:12:04;;;;;;;0.20;0.20;;;;;;;7.28;66.83;102701.31;5066474;28;20036;-80
2023/01/27 02:14:31;;;;;;;0.10;0.10;;;;;;;7.25;67.11;102701.22;5075513;28;20530;-79
2023/01/27 02:16:58;;;;;;;2.40;1.30;;;;;;;7.21;66.35;102697.63;5071619;28;20028;-80
2023/01/27 02:19:38;;;;;;;0.20;0.20;;;;;;;7.27;67.21;102700.41;5070132;28;20399;-77
2023/01/27 02:22:10;;;;;;;0.77;0.77;;;;;;;7.24;66.76;102697.72;5073393;28;20560;-80
2023/01/27 02:24:44;;;;;;;0.35;0.35;;;;;;;7.27;66.94;102697.75;5071804;28;20037;-78
2023/01/27 02:27:13;;;;;;;0.20;0.20;;;;;;;7.22;66.88;102701.16;5073341;28;20041;-78
2023/01/27 02:29:39;;;;;;;0.10;0.10;;;;;;;7.24;66.86;102707.34;5062303;28;20024;-81
2023/01/27 02:32:05;;;;;;;0.10;0.10;;;;;;;7.25;66.93;102703.84;5071175;28;20067;-80
2023/01/27 02:34:36;;;;;;;0.10;0.10;;;;;;;7.14;66.84;102703.63;5070350;28;20035;-78
2023/01/27 02:37:07;;;;;;;0.10;0.10;;;;;;;7.22;66.76;102703.81;5066547;28;20052;-79
2023/01/27 02:39:39;;;;;;;0.10;0.10;;;;;;;7.18;66.96;102704.56;5077461;28;20054;-80
2023/01/27 02:42:08;;;;;;;0.10;0.10;;;;;;;7.12;66.32;102700.94;5083680;28;20036;-77
2023/01/27 02:44:34;;;;;;;0.75;0.75;;;;;;;7.14;66.95;102698.34;5089991;28;20029;-76
2023/01/27 02:47:00;;;;;;;0.10;0.10;;;;;;;7.12;66.62;102694.78;5092540;28;20036;-75
2023/01/27 02:49:26;;;;;;;0.10;0.10;;;;;;;7.12;66.83;102695.66;5076427;28;20071;-77
2023/01/27 02:51:52;;;;;;;0.10;0.10;;;;;;;7.05;66.15;102701.66;5071957;28;20025;-77
2023/01/27 02:54:18;;;;;;;0.10;0.10;;;;;;;7.03;66.16;102711.25;5068574;28;20033;-76
2023/01/27 02:56:44;;;;;;;0.10;0.10;;;;;;;7.00;66.62;102705.88;5064146;28;20506;-76
2023/01/27 02:59:11;;;;;;;0.30;0.30;;;;;;;7.04;66.48;102701.59;5067979;28;20028;-79
2023/01/27 03:01:37;;;;;;;0.10;0.10;;;;;;;7.04;66.45;102705.13;5072669;28;20086;-79
2023/01/27 03:04:04;;;;;;;0.10;0.10;;;;;;;7.02;66.36;102704.19;5069502;28;20039;-80
2023/01/27 03:06:30;;;;;;;0.20;0.20;;;;;;;7.02;66.71;102717.38;5072863;28;20032;-78
2023/01/27 03:08:56;;;;;;;0.10;0.10;;;;;;;7.01;66.65;102707.69;5071137;28;20812;-78
2023/01/27 03:14:09;;;;;;;1.55;1.35;;;;;;;6.95;66.76;102711.06;5081266;28;20043;-77
2023/01/27 03:19:21;;;;;;;0.30;0.30;;;;;;;6.91;66.47;102711.81;5072090;28;20070;-79
2023/01/27 03:21:51;;;;;;;0.10;0.10;;;;;;;6.92;66.19;102712.75;5061802;28;20039;-79
2023/01/27 03:24:17;;;;;;;0.10;0.10;;;;;;;6.92;66.35;102712.75;5065404;28;20028;-77
2023/01/27 03:26:44;;;;;;;0.10;0.10;;;;;;;6.92;66.64;102721.53;5066278;28;20041;-79
2023/01/27 03:31:56;;;;;;;0.10;0.10;;;;;;;6.94;66.69;102721.56;5067408;28;20045;-79
2023/01/27 03:34:22;;;;;;;0.52;0.52;;;;;;;6.90;66.23;102728.50;5067909;28;20028;-79
2023/01/27 03:47:53;;;;;;;0.22;0.22;;;;;;;6.86;66.18;102746.84;5066783;28;20047;-78
2023/01/27 03:50:19;;;;;;;0.10;0.10;;;;;;;6.80;66.64;102745.81;5073108;28;20034;-80
2023/01/27 03:53:01;;;;;;;0.20;0.20;;;;;;;6.79;66.63;102749.31;5074656;28;20142;-81
2023/01/27 03:55:29;;;;;;;0.30;0.30;;;;;;;6.82;66.65;102753.75;5068851;28;20033;-81
2023/01/27 03:57:55;;;;;;;0.10;0.10;;;;;;;6.80;66.69;102751.09;5074486;28;20085;-81
2023/01/27 04:00:22;;;;;;;0.10;0.10;;;;;;;6.76;66.63;102758.88;5072771;28;20031;-81
2023/01/27 04:08:20;;;;;;;0.10;0.10;;;;;;;6.66;66.89;102778.78;5064201;28;20043;-79
2023/01/27 04:11:53;;;;;;;0.10;0.10;;;;;;;6.63;66.81;102773.47;5071925;28;20058;-81
2023/01/27 04:13:32;;;;;;;0.20;0.20;;;;;;;6.60;66.47;102773.38;5072891;28;20048;-81
2023/01/27 04:16:00;;;;;;;0.68;0.57;;;;;;;6.58;66.13;102769.78;5070357;28;20036;-79
2023/01/27 04:18:27;;;;;;;0.30;0.30;;;;;;;6.48;66.23;102776.56;5074031;28;20042;-80
2023/01/27 04:20:53;;;;;;;0.10;0.10;;;;;;;6.53;66.38;102782.84;5089420;28;20047;-84
2023/01/27 04:23:19;;;;;;;0.57;0.57;;;;;;;6.54;66.46;102794.25;5095131;28;20017;-83
2023/01/27 04:25:46;;;;;;;0.20;0.20;;;;;;;6.51;66.13;102788.94;5081786;28;20451;-79
2023/01/27 04:28:12;;;;;;;0.17;0.17;;;;;;;6.53;66.67;102800.38;5069872;28;20054;-79
2023/01/27 04:30:38;;;;;;;0.30;0.30;;;;;;;6.52;66.76;102795.94;5067221;28;20028;-79
2023/01/27 04:33:05;;;;;;;0.10;0.10;;;;;;;6.51;66.31;102810.00;5073583;28;20089;-80
2023/01/27 04:35:31;;;;;;;0.10;0.10;;;;;;;6.48;66.40;102800.25;5073463;28;20115;-80
2023/01/27 04:37:57;;;;;;;0.20;0.20;;;;;;;6.48;66.24;102810.81;5069103;28;20031;-79
2023/01/27 04:40:23;;;;;;;0.10;0.10;;;;;;;6.41;66.26;102791.28;5071823;28;20056;-81
2023/01/27 04:42:51;;;;;;;0.20;0.20;;;;;;;6.39;66.15;102795.63;5074291;28;20070;-79
2023/01/27 04:45:17;;;;;;;0.40;0.40;;;;;;;6.35;65.82;102798.13;5078017;28;20025;-78
2023/01/27 04:47:43;;;;;;;0.10;0.10;;;;;;;6.39;65.94;102799.97;5074755;28;20046;-79
2023/01/27 04:50:10;;;;;;;0.10;0.10;;;;;;;6.40;66.27;102793.88;5074038;28;20549;-82
2023/01/27 04:52:36;;;;;;;2.35;0.50;;;;;;;6.39;65.77;102806.16;5078475;28;20025;-82
2023/01/27 04:55:02;;;;;;;0.10;0.10;;;;;;;6.38;65.71;102807.00;5077353;28;20029;-80
2023/01/27 04:57:28;;;;;;;0.10;0.10;;;;;;;6.33;65.47;102803.34;5077512;28;20385;-79
2023/01/27 04:59:54;;;;;;;0.10;0.10;;;;;;;6.33;65.39;102805.97;5075093;28;20020;-80
2023/01/27 05:02:20;;;;;;;0.10;0.10;;;;;;;6.40;65.77;102801.78;5076779;28;20041;-78
2023/01/27 05:04:46;;;;;;;0.35;0.35;;;;;;;6.42;65.80;102803.59;5090883;28;20028;-81
2023/01/27 05:07:12;;;;;;;0.10;0.10;;;;;;;6.39;65.37;102800.91;5091679;28;20033;-79
2023/01/27 05:09:38;;;;;;;0.35;0.35;;;;;;;6.42;65.51;102811.50;5084814;28;20032;-81
2023/01/27 05:12:04;;;;;;;0.10;0.10;;;;;;;6.43;65.97;102813.28;5079272;28;20040;-80
2023/01/27 05:14:30;;;;;;;0.80;0.63;;;;;;;6.45;65.69;102808.06;5075174;28;20055;-79
2023/01/27 05:16:56;;;;;;;0.10;0.10;;;;;;;6.44;65.72;102812.44;5077143;28;20028;-80
2023/01/27 05:19:22;;;;;;;0.10;0.10;;;;;;;6.46;65.58;102812.47;5082442;28;20024;-81
2023/01/27 05:21:49;;;;;;;0.10;0.10;;;;;;;6.46;65.20;102810.72;5081353;28;20064;-79
2023/01/27 05:24:15;;;;;;;0.35;0.35;;;;;;;6.47;65.34;102815.16;5086518;28;20084;-81
2023/01/27 05:26:41;;;;;;;0.10;0.10;;;;;;;6.48;65.71;102813.44;5084894;28;20032;-78
2023/01/27 05:29:08;;;;;;;0.10;0.10;;;;;;;6.46;65.43;102823.91;5081685;28;20090;-81
2023/01/27 05:31:34;;;;;;;0.10;0.10;;;;;;;6.45;64.78;102811.56;5087518;28;20024;-79
2023/01/27 05:34:01;;;;;;;0.10;0.10;;;;;;;6.46;65.21;102818.63;5077618;28;20020;-79
2023/01/27 05:36:28;;;;;;;0.10;0.10;;;;;;;6.51;65.46;102824.03;5075832;28;20074;-83
2023/01/27 05:38:55;;;;;;;0.45;0.40;;;;;;;6.48;64.85;102811.69;5074480;28;20040;-80
2023/01/27 05:41:22;;;;;;;0.10;0.10;;;;;;;6.51;65.05;102826.66;5072205;28;20020;-79
2023/01/27 05:43:52;;;;;;;0.10;0.10;;;;;;;6.52;64.66;102827.56;5071117;28;20046;-80
2023/01/27 05:46:21;;;;;;;0.10;0.10;;;;;;;6.53;64.91;102832.88;5067080;28;20027;-80
2023/01/27 05:48:51;;;;;;;0.10;0.10;;;;;;;6.55;64.58;102838.19;5074294;28;20029;-79
2023/01/27 05:51:19;;;;;;;0.10;0.10;;;;;;;6.53;64.68;102835.53;5065272;28;20040;-81
2023/01/27 05:53:46;;;;;;;0.10;0.10;;;;;;;6.58;65.14;102843.53;5070976;28;20035;-79
2023/01/27 05:56:15;;;;;;;0.20;0.20;;;;;;;6.48;64.25;102840.66;5092600;28;20039;-82
2023/01/27 05:58:41;;;;;;;0.20;0.20;;;;;;;6.49;64.20;102838.88;5097001;28;20020;-83
2023/01/27 06:01:10;;;;;;;0.10;0.10;;;;;;;6.50;64.74;102845.06;5080820;28;20132;-79
2023/01/27 06:03:37;;;;;;;0.65;0.65;;;;;;;6.50;63.99;102834.53;5074814;28;20028;-80
2023/01/27 06:06:04;;;;;;;0.30;0.30;;;;;;;6.51;64.46;102837.22;5075108;28;20120;-80
2023/01/27 06:08:30;;;;;;;0.10;0.10;;;;;;;6.53;64.19;102845.16;5074049;28;20028;-79
2023/01/27 06:10:57;;;;;;;0.10;0.10;;;;;;;6.52;64.32;102845.97;5075069;28;20028;-79
2023/01/27 06:13:23;;;;;;;0.10;0.10;;;;;;;6.53;63.97;102846.06;5073569;28;20032;-82
2023/01/27 06:15:50;;;;;;;0.10;0.10;;;;;;;6.55;64.71;102851.34;5075638;28;20056;-80
2023/01/27 06:18:18;;;;;;;0.20;0.20;;;;;;;6.53;64.29;102848.69;5080971;28;20088;-78
2023/01/27 06:20:44;;;;;;;0.10;0.10;;;;;;;6.45;63.64;102847.56;5079230;28;20040;-83
2023/01/27 06:23:13;;;;;;;0.10;0.10;;;;;;;6.52;63.99;102848.63;5073997;28;20463;-81
2023/01/27 06:25:42;;;;;;;0.10;0.10;;;;;;;6.54;63.95;102852.19;5074830;28;20032;-80
2023/01/27 06:28:09;;;;;;;0.10;0.10;;;;;;;6.55;64.21;102854.00;5077846;28;20029;-81
2023/01/27 06:30:37;;;;;;;0.10;0.10;;;;;;;6.51;64.19;102847.75;5067869;28;20094;-81
2023/01/27 06:33:05;;;;;;;0.20;0.20;;;;;;;6.44;63.11;102851.94;5091717;28;20535;-82
2023/01/27 06:35:32;;;;;;;0.10;0.10;;;;;;;6.50;63.68;102856.47;5089897;28;20032;-82
2023/01/27 06:37:59;;;;;;;0.10;0.10;;;;;;;6.50;63.59;102851.22;5077824;28;20585;-81
2023/01/27 06:40:26;;;;;;;0.10;0.10;;;;;;;6.52;63.98;102859.16;5067327;28;20052;-81
2023/01/27 06:42:52;;;;;;;0.10;0.10;;;;;;;6.52;64.07;102860.06;5075360;28;20035;-82
2023/01/27 06:45:18;;;;;;;0.10;0.10;;;;;;;6.54;63.72;102865.38;5076872;28;20059;-82
2023/01/27 06:47:44;;;;;;;0.10;0.10;;;;;;;6.53;63.54;102868.84;5082326;28;20033;-82
2023/01/27 06:50:11;;;;;;;0.10;0.10;;;;;;;6.48;63.13;102869.63;5077991;28;20032;-82
2023/01/27 06:52:37;;;;;;;0.10;0.10;;;;;;;6.51;63.39;102874.06;5075680;28;20461;-81
2023/01/27 06:55:05;;;;;;;0.10;0.10;;;;;;;6.44;62.60;102873.00;5074090;28;20041;-82
2023/01/27 06:57:31;;;;;;;0.10;0.10;;;;;;;6.41;62.07;102878.16;5074743;28;20108;-82
2023/01/27 06:59:57;;;;;;;0.10;0.10;;;;;;;6.36;61.68;102874.50;5072348;28;20021;-81
2023/01/27 07:02:23;;;;;;;0.13;0.13;;;;;;;6.37;62.30;102880.66;5074303;28;20043;-80
2023/01/27 07:04:49;;;;;;;0.10;0.10;;;;;;;6.31;61.23;102871.72;5072593;28;20105;-81
2023/01/27 07:07:15;;;;;;;0.10;0.10;;;;;;;6.26;60.75;102877.72;5068243;28;20121;-83
2023/01/27 07:09:41;;;;;;;0.15;0.15;;;;;;;6.28;61.41;102870.75;5069434;28;20020;-81
2023/01/27 07:12:07;;;;;;;0.15;0.15;;;;;;;6.28;61.73;102869.03;5068187;28;20032;-80
2023/01/27 07:14:33;;;;;;;0.10;0.10;;;;;;;6.31;61.42;102873.47;5069969;28;20042;-80
2023/01/27 07:16:59;;;;;;;0.10;0.10;;;;;;;6.36;62.24;102874.50;5078110;28;20150;-79
2023/01/27 07:19:26;;;;;;;0.10;0.10;;;;;;;6.34;62.05;102878.81;5084298;28;20508;-80
2023/01/27 07:21:52;;;;;;;0.10;0.10;;;;;;;6.31;61.96;102881.38;5087895;28;20020;-81
2023/01/27 07:24:18;;;;;;;0.10;0.10;;;;;;;6.34;61.89;102885.84;5083270;28;20037;-80
2023/01/27 07:26:46;;;;;;;0.10;0.10;;;;;;;6.29;62.12;102872.53;5080973;28;20062;-78
2023/01/27 07:29:13;;;;;;;0.10;0.10;;;;;;;6.30;62.46;102874.31;5082747;28;20020;-82
2023/01/27 07:31:39;;;;;;;0.20;0.20;;;;;;;6.30;62.49;102880.47;5098164;28;20024;-83
2023/01/27 07:34:05;;;;;;;0.10;0.10;;;;;;;6.32;62.56;102875.28;5099176;28;20019;-83
2023/01/27 07:36:31;;;;;;;0.10;0.10;;;;;;;6.26;61.96;102880.34;5100379;28;20040;-82
2023/01/27 07:38:57;;;;;;;0.10;0.10;;;;;;;6.28;62.41;102882.19;5073371;28;20044;-81
2023/01/27 07:41:24;;;;;;;0.10;0.10;;;;;;;6.26;62.16;102893.50;5071813;28;20039;-80
2023/01/27 07:43:50;;;;;;;0.15;0.15;;;;;;;6.20;62.29;102903.84;5083434;28;20507;-82
2023/01/27 07:46:16;;;;;;;0.10;0.10;;;;;;;6.20;62.47;102914.38;5083177;28;20024;-81
2023/01/27 07:48:42;;;;;;;0.57;0.57;;;;;;;6.17;62.32;102917.81;5089150;28;20092;-80
2023/01/27 07:51:13;;;;;;;0.10;0.10;;;;;;;6.20;62.45;102917.00;5096155;28;20021;-79
2023/01/27 07:53:40;;;;;;;0.10;0.10;;;;;;;6.18;62.31;102926.59;5091761;28;20032;-81
2023/01/27 07:56:14;;;;;;;0.10;0.10;;;;;;;6.20;62.67;102924.91;5074087;28;20102;-81
2023/01/27 07:58:42;;;;;;;0.38;0.38;;;;;;;6.21;62.66;102931.97;5084374;28;20078;-80
2023/01/27 08:01:10;;;;;;;0.10;0.10;;;;;;;6.22;62.62;102923.19;5090393;28;20021;-80
2023/01/27 08:03:37;;;;;;;0.20;0.20;;;;;;;6.20;62.71;102925.78;5085448;28;20039;-83
2023/01/27 08:06:09;;;;;;;0.10;0.10;;;;;;;6.20;62.07;102928.41;5088389;28;20036;-82
2023/01/27 08:08:35;;;;;;;0.10;0.10;;;;;;;6.23;62.29;102938.16;5088448;28;20046;-84
2023/01/27 08:11:06;;;;;;;0.10;0.10;;;;;;;6.25;62.07;102936.47;5087777;28;20024;-83
2023/01/27 08:13:33;;;;;;;0.10;0.10;;;;;;;6.26;61.87;102935.63;5086852;28;20640;-82
2023/01/27 08:16:00;;;;;;;0.08;0.08;;;;;;;6.32;62.18;102935.81;5090336;28;20028;-82
2023/01/27 08:18:27;;;;;;;0.10;0.10;;;;;;;6.35;61.96;102935.03;5083451;28;20555;-82
2023/01/27 08:20:54;;;;;;;0.10;0.10;;;;;;;6.34;62.19;102934.13;5088042;28;20169;-82
2023/01/27 08:23:21;;;;;;;0.10;0.10;;;;;;;6.38;62.37;102930.75;5089697;28;20020;-81
2023/01/27 08:25:50;;;;;;;0.10;0.10;;;;;;;6.44;62.55;102941.47;5090247;28;20488;-81
2023/01/27 08:28:17;;;;;;;0.10;0.10;;;;;;;6.50;62.17;102943.38;5093817;28;20487;-81
2023/01/27 08:30:44;;;;;;;0.00;0.00;;;;;;;6.49;61.79;102944.22;5086693;28;20063;-83
2023/01/27 08:33:10;;;;;;;0.10;0.10;;;;;;;6.52;62.18;102943.44;5093609;28;20056;-83
2023/01/27 08:35:37;;;;;;;0.10;0.10;;;;;;;6.61;61.90;102941.09;5087534;28;20086;-82
2023/01/27 08:38:04;;;;;;;0.10;0.10;;;;;;;6.64;61.71;102938.53;5088055;28;20091;-82
2023/01/27 08:40:30;;;;;;;1.35;1.27;;;;;;;6.66;62.01;102941.25;5076909;28;20041;-80
2023/01/27 08:42:56;;;;;;;0.10;0.10;;;;;;;6.67;61.90;102938.66;5071418;28;20027;-79
2023/01/27 08:45:23;;;;;;;0.10;0.10;;;;;;;6.66;61.56;102942.13;5088877;28;20020;-81
2023/01/27 08:47:49;;;;;;;0.10;0.10;;;;;;;6.67;61.25;102943.00;5077966;28;20070;-81
2023/01/27 08:50:15;;;;;;;0.10;0.10;;;;;;;6.70;61.55;102949.25;5077265;28;20036;-82
2023/01/27 08:52:41;;;;;;;0.10;0.10;;;;;;;6.75;61.98;102942.41;5078644;28;20043;-80
2023/01/27 08:55:07;;;;;;;0.10;0.10;;;;;;;6.78;61.19;102937.22;5076717;28;20036;-81
2023/01/27 08:57:33;;;;;;;0.10;0.10;;;;;;;6.83;61.36;102939.09;5075397;28;20089;-82
2023/01/27 08:59:59;;;;;;;0.10;0.10;;;;;;;6.87;61.46;102954.16;5077915;28;20088;-82
2023/01/27 09:02:26;;;;;;;0.10;0.10;;;;;;;6.89;61.10;102955.06;5081582;28;20039;-83
2023/01/27 09:04:52;;;;;;;0.10;0.10;;;;;;;6.89;60.28;102949.81;5078527;28;20043;-81
2023/01/27 09:07:18;;;;;;;0.40;0.40;;;;;;;6.90;59.97;102952.50;5084779;28;20013;-80
2023/01/27 09:09:47;;;;;;;0.10;0.10;;;;;;;6.87;59.83;102951.53;5102894;28;20032;-85
2023/01/27 09:12:13;;;;;;;0.20;0.20;;;;;;;6.76;59.86;102949.44;5104789;28;20065;-82
2023/01/27 09:14:39;;;;;;;0.10;0.10;;;;;;;6.63;59.87;102948.19;5091896;28;20039;-82
2023/01/27 09:17:05;;;;;;;0.10;0.10;;;;;;;6.57;60.06;102952.38;5090190;28;20040;-79
2023/01/27 09:19:32;;;;;;;0.10;0.10;;;;;;;6.50;60.06;102955.69;5092168;28;20028;-83
2023/01/27 09:21:58;;;;;;;0.10;0.10;;;;;;;6.46;60.08;102959.94;5098611;28;20111;-78
2023/01/27 09:24:24;;;;;;;0.10;0.10;;;;;;;6.46;60.75;102954.69;5093699;28;20304;-81
2023/01/27 09:26:50;;;;;;;0.10;0.10;;;;;;;6.47;60.70;102954.72;5087696;28;20035;-81
2023/01/27 09:29:17;;;;;;;0.10;0.10;;;;;;;6.56;60.15;102962.00;5087277;28;20531;-80
2023/01/27 09:31:43;;;;;;;0.10;0.10;;;;;;;6.54;59.97;102954.91;5089755;28;20466;-82
2023/01/27 09:34:09;;;;;;;0.20;0.20;;;;;;;6.54;60.51;102957.53;5089356;28;20092;-82
2023/01/27 09:36:41;;;;;;;0.10;0.10;;;;;;;6.51;60.54;102968.00;5085694;28;20029;-83
2023/01/27 09:39:09;;;;;;;0.10;0.10;;;;;;;6.47;60.35;102957.34;5077222;28;20031;-83
2023/01/27 09:47:51;;;;;;;0.10;0.10;;;;;;;6.56;60.56;102958.50;5098605;27;1204658;-81
2023/01/27 09:50:47;;;;;;;0.10;0.10;;;;;;;6.63;60.56;102955.22;5131423;27;20400;-82
2023/01/27 09:56:34;;;;;;;0.13;0.13;;;;;;;6.67;60.36;102949.19;5107044;27;1176814;-83
2023/01/27 09:59:27;;;;;;;0.13;0.13;;;;;;;6.76;60.50;102946.81;5126667;28;20292;-81
2023/01/27 10:02:10;;;;;;;0.10;0.10;;;;;;;6.75;59.93;102949.41;5136132;27;20481;-81
2023/01/27 10:04:55;;;;;;;0.20;0.20;;;;;;;6.83;60.15;102954.91;5126086;27;20487;-82
2023/01/27 10:07:48;;;;;;;0.10;0.10;;;;;;;6.87;60.21;102957.66;5104829;28;20020;-81
2023/01/27 10:10:33;;;;;;;;;;;;;;;7.00;59.55;102953.63;5110501;28;20051;-82
2023/01/27 10:13:15;;;;;;;0.10;0.10;;;;;;;7.00;59.66;102958.03;5105159;28;19912;-82
2023/01/27 10:16:12;;;;;;;0.20;0.20;;;;;;;7.07;60.02;102958.25;5106735;28;20024;-81
2023/01/27 10:21:41;;;;;;;0.10;0.10;;;;;;;7.06;59.28;102969.63;5099698;27;1189151;-80
2023/01/27 10:27:21;;;;;;;0.15;0.15;;;;;;;7.33;59.78;102970.38;5111064;27;20393;-82
2023/01/27 10:29:56;;;;;;;0.10;0.10;;;;;;;7.38;59.26;102960.88;5091693;28;20013;-81
2023/01/27 10:32:30;;;;;;;0.60;0.60;;;;;;;7.43;59.64;102964.53;5086698;28;20538;-82
2023/01/27 10:35:08;;;;;;;0.10;0.10;;;;;;;7.53;58.81;102965.66;5093758;28;20029;-83
2023/01/27 10:40:44;;;;;;;1.95;0.80;;;;;;;7.69;59.26;102973.13;5140674;27;22448;-81
2023/01/27 10:43:15;;;;;;;;;;;;;;;7.68;58.49;102962.53;5134376;28;20039;-81
2023/01/27 10:45:57;;;;;;;0.30;0.30;;;;;;;7.48;58.06;102965.53;5132684;28;19937;-82
2023/01/27 10:48:47;;;;;;;0.20;0.20;;;;;;;7.49;58.30;102963.78;5137396;27;20029;-80
2023/01/27 10:51:36;;;;;;;0.10;0.10;;;;;;;7.51;59.22;102967.34;5134446;28;20031;-81
2023/01/27 10:54:12;;;;;;;0.10;0.10;;;;;;;7.49;58.82;102969.06;5138438;27;20373;-81
2023/01/27 10:56:45;;;;;;;0.10;0.10;;;;;;;7.47;59.59;102965.50;5136847;28;20031;-79
2023/01/27 10:59:21;;;;;;;;;;;;;;;7.60;59.36;102967.59;5132875;27;20043;-81
2023/01/27 11:04:51;;;;;;;0.10;0.10;;;;;;;7.59;59.33;102969.34;5094948;27;20651;-80
2023/01/27 11:07:20;;;;;;;0.10;0.10;;;;;;;7.69;59.74;102969.56;5079198;28;20029;-80
2023/01/27 11:12:36;;;;;;;0.10;0.10;;;;;;;7.88;59.01;102955.13;5078993;27;20397;-80
2023/01/27 11:18:18;;;;;;;0.10;0.10;;;;;;;8.04;59.24;102949.38;5067317;28;20402;-80
2023/01/27 11:20:49;;;;;;;0.10;0.10;;;;;;;8.08;58.75;102945.06;5036462;28;20040;-81
2023/01/27 11:23:34;;;;;;;0.10;0.10;;;;;;;8.16;58.47;102947.88;5049028;28;20028;-81
2023/01/27 11:26:25;;;;;;;0.13;0.13;;;;;;;8.18;59.00;102948.81;5045736;28;20056;-80
2023/01/27 11:29:16;;;;;;;0.10;0.10;;;;;;;8.18;58.58;102954.09;5051394;28;20112;-80
2023/01/27 11:32:11;;;;;;;0.10;0.10;;;;;;;8.20;59.20;102944.44;5048441;28;20041;-80
2023/01/27 11:35:05;;;;;;;0.20;0.20;;;;;;;8.20;58.53;102944.44;5055119;28;20392;-81
2023/01/27 11:37:42;;;;;;;0.10;0.10;;;;;;;8.22;58.88;102946.28;5039588;28;20136;-81
2023/01/27 11:40:30;;;;;;;0.10;0.10;;;;;;;8.22;58.97;102948.03;5048128;28;20121;-81
2023/01/27 11:42:58;;;;;;;0.10;0.10;;;;;;;8.13;59.08;102937.25;5053173;28;20034;-80
2023/01/27 11:45:26;;;;;;;0.10;0.10;;;;;;;8.15;59.66;102941.72;5053963;28;20040;-80
2023/01/27 11:47:57;;;;;;;0.20;0.20;;;;;;;8.16;58.58;102945.22;5048775;28;20429;-81
2023/01/27 11:50:28;;;;;;;0.20;0.20;;;;;;;8.19;59.50;102938.28;5047776;28;20029;-81
2023/01/27 11:53:05;;;;;;;0.10;0.10;;;;;;;8.19;59.43;102935.63;5049869;28;20081;-81
2023/01/27 11:55:39;;;;;;;0.10;0.10;;;;;;;8.10;59.28;102936.31;5045312;28;20030;-81
2023/01/27 11:58:14;;;;;;;0.10;0.10;;;;;;;8.07;59.46;102930.97;5045736;28;20045;-82
2023/01/27 12:00:45;;;;;;;0.10;0.10;;;;;;;8.03;60.00;102931.72;5035633;28;20028;-82
2023/01/27 12:03:19;;;;;;;0.15;0.15;;;;;;;8.02;59.90;102927.31;5037812;28;20026;-81
2023/01/27 12:05:59;;;;;;;0.10;0.10;;;;;;;8.03;59.32;102926.47;5055863;28;20029;-82
2023/01/27 12:08:48;;;;;;;0.10;0.10;;;;;;;8.05;59.59;102930.03;5043525;28;20025;-82
2023/01/27 12:13:57;;;;;;;0.10;0.10;;;;;;;8.06;59.79;102915.06;5108755;27;1167396;-82
2023/01/27 12:16:46;;;;;;;0.10;0.10;;;;;;;8.07;58.68;102916.88;5135043;27;20035;-80
2023/01/27 12:19:33;;;;;;;0.10;0.10;;;;;;;8.13;58.82;102918.78;5130098;28;20027;-83
2023/01/27 12:22:06;;;;;;;0.10;0.10;;;;;;;8.16;59.36;102919.75;5156054;27;20097;-85
2023/01/27 12:24:34;;;;;;;;;;;;;;;8.22;58.75;102905.78;5152432;27;20092;-83
2023/01/27 12:27:02;;;;;;;0.10;0.10;;;;;;;8.14;59.32;102917.88;5146601;28;19902;-84
2023/01/27 12:29:41;;;;;;;0.10;0.10;;;;;;;8.15;58.78;102919.69;5148646;27;20052;-81
2023/01/27 12:35:26;;;;;;;0.10;0.10;;;;;;;8.10;59.50;102923.13;5097416;27;1207209;-81
2023/01/27 12:38:06;;;;;;;0.10;0.10;;;;;;;8.14;59.02;102917.88;5131032;28;20111;-81
2023/01/27 12:40:33;;;;;;;0.10;0.10;;;;;;;8.09;59.16;102916.03;5105859;27;20029;-82
2023/01/27 12:48:52;;;;;;;0.10;0.10;;;;;;;8.15;58.39;102911.75;5145629;27;20322;-81
2023/01/27 12:51:22;;;;;;;0.05;0.05;;;;;;;8.16;59.43;102903.00;5134923;27;20491;-81
2023/01/27 12:53:50;;;;;;;0.10;0.10;;;;;;;8.18;59.24;102903.94;5129072;27;20024;-81
2023/01/27 12:56:21;;;;;;;0.10;0.10;;;;;;;8.18;58.93;102909.22;5132413;27;20023;-81
2023/01/27 12:58:57;;;;;;;0.10;0.10;;;;;;;8.20;58.60;102903.09;5127117;27;20039;-81